sensor_id;sensor_type;location;lat;lon;timestamp;pressure;altitude;pressure_sealevel;temperature;humidity
49945;BME280;35838;49.134;9.212;2023-11-19T00:00:18;99861.84;;;7.84;100.00
49945;BME280;35838;49.134;9.212;2023-11-19T00:01:49;99857.56;;;7.88;100.00
49945;BME280;35838;49.134;9.212;2023-11-19T00:03:22;99853.16;;;7.73;100.00
49945;BME280;35838;49.134;9.212;2023-11-19T00:04:53;99867.03;;;7.87;100.00
49945;BME280;35838;49.134;9.212;2023-11-19T00:06:30;99859.31;;;7.89;100.00
49945;BME280;35838;49.134;9.212;2023-11-19T00:08:01;99861.78;;;7.75;100.00
49945;BME280;35838;49.134;9.212;2023-11-19T00:09:36;99854.94;;;7.80;100.00
49945;BME280;35838;49.134;9.212;2023-11-19T00:11:08;99859.28;;;7.86;100.00
49945;BME280;35838;49.134;9.212;2023-11-19T00:12:42;99854.88;;;7.77;100.00
49945;BME280;35838;49.134;9.212;2023-11-19T00:14:14;99852.34;;;7.81;100.00
49945;BME280;35838;49.134;9.212;2023-11-19T00:15:48;99850.59;;;7.80;100.00
49945;BME280;35838;49.134;9.212;2023-11-19T00:17:19;99854.94;;;7.86;100.00
49945;BME280;35838;49.134;9.212;2023-11-19T00:18:53;99852.38;;;7.84;100.00
49945;BME280;35838;49.134;9.212;2023-11-19T00:20:26;99852.41;;;7.88;100.00
49945;BME280;35838;49.134;9.212;2023-11-19T00:22:00;99848.94;;;7.86;100.00
49945;BME280;35838;49.134;9.212;2023-11-19T00:23:34;99852.44;;;7.94;100.00
49945;BME280;35838;49.134;9.212;2023-11-19T00:25:06;99853.28;;;7.94;100.00
49945;BME280;35838;49.134;9.212;2023-11-19T00:26:39;99840.38;;;7.99;100.00
49945;BME280;35838;49.134;9.212;2023-11-19T00:28:10;99842.13;;;8.03;100.00
49945;BME280;35838;49.134;9.212;2023-11-19T00:29:44;99853.28;;;7.91;100.00
49945;BME280;35838;49.134;9.212;2023-11-19T00:31:15;99849.75;;;7.81;100.00
49945;BME280;35838;49.134;9.212;2023-11-19T00:32:49;99851.47;;;7.78;100.00
49945;BME280;35838;49.134;9.212;2023-11-19T00:34:23;99847.16;;;7.81;100.00
49945;BME280;35838;49.134;9.212;2023-11-19T00:35:54;99842.00;;;7.78;100.00
49945;BME280;35838;49.134;9.212;2023-11-19T00:37:30;99838.59;;;7.86;100.00
49945;BME280;35838;49.134;9.212;2023-11-19T00:39:01;99842.91;;;7.88;100.00
49945;BME280;35838;49.134;9.212;2023-11-19T00:40:36;99836.88;;;7.86;100.00
49945;BME280;35838;49.134;9.212;2023-11-19T00:42:07;99848.91;;;7.79;100.00
49945;BME280;35838;49.134;9.212;2023-11-19T00:43:40;99837.72;;;7.83;100.00
49945;BME280;35838;49.134;9.212;2023-11-19T00:45:11;99836.88;;;7.86;100.00
49945;BME280;35838;49.134;9.212;2023-11-19T00:46:45;99842.91;;;7.88;100.00
49945;BME280;35838;49.134;9.212;2023-11-19T00:48:16;99837.75;;;7.90;100.00
49945;BME280;35838;49.134;9.212;2023-11-19T00:49:50;99832.56;;;7.87;100.00
49945;BME280;35838;49.134;9.212;2023-11-19T00:51:21;99830.91;;;7.93;100.00
49945;BME280;35838;49.134;9.212;2023-11-19T00:52:57;99824.84;;;7.93;100.00
49945;BME280;35838;49.134;9.212;2023-11-19T00:54:28;99823.13;;;7.89;100.00
49945;BME280;35838;49.134;9.212;2023-11-19T00:56:02;99808.44;;;7.84;100.00
49945;BME280;35838;49.134;9.212;2023-11-19T00:57:33;99806.72;;;7.83;100.00
49945;BME280;35838;49.134;9.212;2023-11-19T00:59:07;99804.16;;;7.90;100.00
49945;BME280;35838;49.134;9.212;2023-11-19T01:00:38;99804.16;;;7.90;100.00
49945;BME280;35838;49.134;9.212;2023-11-19T01:02:13;99813.63;;;7.91;100.00
49945;BME280;35838;49.134;9.212;2023-11-19T01:03:44;99805.06;;;7.96;100.00
49945;BME280;35838;49.134;9.212;2023-11-19T01:05:18;99799.88;;;7.98;100.00
49945;BME280;35838;49.134;9.212;2023-11-19T01:06:52;99802.47;;;7.95;100.00
49945;BME280;35838;49.134;9.212;2023-11-19T01:08:28;99800.72;;;7.95;100.00
49945;BME280;35838;49.134;9.212;2023-11-19T01:09:59;99797.28;;;7.98;100.00
49945;BME280;35838;49.134;9.212;2023-11-19T01:11:33;99793.84;;;7.99;100.00
49945;BME280;35838;49.134;9.212;2023-11-19T01:13:04;99798.16;;;7.94;100.00
49945;BME280;35838;49.134;9.212;2023-11-19T01:14:39;99795.59;;;7.97;100.00
49945;BME280;35838;49.134;9.212;2023-11-19T01:16:10;99806.78;;;7.96;100.00
49945;BME280;35838;49.134;9.212;2023-11-19T01:17:43;99805.94;;;7.97;100.00
49945;BME280;35838;49.134;9.212;2023-11-19T01:19:14;99813.72;;;8.02;100.00
49945;BME280;35838;49.134;9.212;2023-11-19T01:20:48;99819.75;;;8.05;100.00
49945;BME280;35838;49.134;9.212;2023-11-19T01:22:19;99815.44;;;8.06;100.00
49945;BME280;35838;49.134;9.212;2023-11-19T01:23:56;99818.94;;;8.11;100.00
49945;BME280;35838;49.134;9.212;2023-11-19T01:25:27;99818.03;;;8.04;100.00
49945;BME280;35838;49.134;9.212;2023-11-19T01:27:01;99818.84;;;7.97;100.00
49945;BME280;35838;49.134;9.212;2023-11-19T01:28:34;99817.97;;;7.95;100.00
49945;BME280;35838;49.134;9.212;2023-11-19T01:30:06;99814.53;;;7.96;100.00
49945;BME280;35838;49.134;9.212;2023-11-19T01:31:43;99817.94;;;7.92;100.00
49945;BME280;35838;49.134;9.212;2023-11-19T01:33:16;99817.94;;;7.90;100.00
49945;BME280;35838;49.134;9.212;2023-11-19T01:34:49;99814.47;;;7.90;100.00
49945;BME280;35838;49.134;9.212;2023-11-19T01:36:23;99811.94;;;7.91;100.00
49945;BME280;35838;49.134;9.212;2023-11-19T01:37:54;99816.19;;;7.84;100.00
49945;BME280;35838;49.134;9.212;2023-11-19T01:39:30;99817.94;;;7.89;100.00
49945;BME280;35838;49.134;9.212;2023-11-19T01:41:01;99819.66;;;7.90;100.00
49945;BME280;35838;49.134;9.212;2023-11-19T01:42:36;99811.03;;;7.91;100.00
49945;BME280;35838;49.134;9.212;2023-11-19T01:44:07;99814.47;;;7.85;100.00
49945;BME280;35838;49.134;9.212;2023-11-19T01:45:42;99805.06;;;7.93;100.00
49945;BME280;35838;49.134;9.212;2023-11-19T01:47:16;99797.31;;;7.93;100.00
49945;BME280;35838;49.134;9.212;2023-11-19T01:48:47;99789.53;;;7.90;100.00
49945;BME280;35838;49.134;9.212;2023-11-19T01:50:21;99786.94;;;7.90;100.00
49945;BME280;35838;49.134;9.212;2023-11-19T01:51:52;99785.22;;;7.88;100.00
49945;BME280;35838;49.134;9.212;2023-11-19T01:53:26;99789.50;;;7.84;100.00
49945;BME280;35838;49.134;9.212;2023-11-19T01:55:00;99794.63;;;7.78;100.00
49945;BME280;35838;49.134;9.212;2023-11-19T01:56:35;99792.06;;;7.81;100.00
49945;BME280;35838;49.134;9.212;2023-11-19T01:58:06;99797.16;;;7.67;100.00
49945;BME280;35838;49.134;9.212;2023-11-19T01:59:40;99808.31;;;7.67;100.00
49945;BME280;35838;49.134;9.212;2023-11-19T02:01:12;99802.34;;;7.70;100.00
49945;BME280;35838;49.134;9.212;2023-11-19T02:02:46;99817.88;;;7.75;100.00
49945;BME280;35838;49.134;9.212;2023-11-19T02:04:18;99804.09;;;7.77;100.00
49945;BME280;35838;49.134;9.212;2023-11-19T02:05:52;99809.22;;;7.69;100.00
49945;BME280;35838;49.134;9.212;2023-11-19T02:07:23;99797.19;;;7.76;100.00
49945;BME280;35838;49.134;9.212;2023-11-19T02:08:57;99802.41;;;7.79;100.00
49945;BME280;35838;49.134;9.212;2023-11-19T02:10:31;99798.97;;;7.83;100.00
49945;BME280;35838;49.134;9.212;2023-11-19T02:12:05;99807.59;;;7.87;100.00
49945;BME280;35838;49.134;9.212;2023-11-19T02:13:37;99798.97;;;7.87;100.00
49945;BME280;35838;49.134;9.212;2023-11-19T02:15:11;99793.84;;;7.91;100.00
49945;BME280;35838;49.134;9.212;2023-11-19T02:16:43;99798.97;;;7.90;100.00
49945;BME280;35838;49.134;9.212;2023-11-19T02:18:17;99798.06;;;7.80;100.00
49945;BME280;35838;49.134;9.212;2023-11-19T02:19:48;99807.63;;;7.96;100.00
49945;BME280;35838;49.134;9.212;2023-11-19T02:48:28;99779.19;;;7.98;100.00
49945;BME280;35838;49.134;9.212;2023-11-19T02:50:01;99774.03;;;7.95;100.00
49945;BME280;35838;49.134;9.212;2023-11-19T02:51:33;99782.69;;;8.03;100.00
49945;BME280;35838;49.134;9.212;2023-11-19T02:53:07;99783.53;;;8.02;100.00
49945;BME280;35838;49.134;9.212;2023-11-19T02:54:38;99780.09;;;8.03;100.00
49945;BME280;35838;49.134;9.212;2023-11-19T02:56:12;99782.72;;;8.06;100.00
49945;BME280;35838;49.134;9.212;2023-11-19T02:57:50;99786.09;;;7.99;100.00
49945;BME280;35838;49.134;9.212;2023-11-19T02:59:24;99781.78;;;7.95;100.00
49945;BME280;35838;49.134;9.212;2023-11-19T03:00:58;99776.56;;;7.82;100.00
49945;BME280;35838;49.134;9.212;2023-11-19T03:02:41;99771.47;;;7.95;100.00
49945;BME280;35838;49.134;9.212;2023-11-19T03:04:18;99762.84;;;7.99;100.00
49945;BME280;35838;49.134;9.212;2023-11-19T03:05:53;99746.47;;;8.00;100.00
49945;BME280;35838;49.134;9.212;2023-11-19T03:07:24;99737.03;;;8.02;100.00
49945;BME280;35838;49.134;9.212;2023-11-19T03:08:58;99740.50;;;8.09;100.00
49945;BME280;35838;49.134;9.212;2023-11-19T03:10:36;99735.34;;;8.09;100.00
49945;BME280;35838;49.134;9.212;2023-11-19T03:12:07;99719.78;;;8.01;100.00
49945;BME280;35838;49.134;9.212;2023-11-19T03:13:41;99720.66;;;8.09;100.00
49945;BME280;35838;49.134;9.212;2023-11-19T03:15:12;99712.94;;;8.12;100.00
49945;BME280;35838;49.134;9.212;2023-11-19T03:16:46;99719.84;;;8.20;100.00
49945;BME280;35838;49.134;9.212;2023-11-19T03:18:20;99720.72;;;8.26;100.00
49945;BME280;35838;49.134;9.212;2023-11-19T03:19:53;99712.09;;;8.26;100.00
49945;BME280;35838;49.134;9.212;2023-11-19T03:21:28;99714.69;;;8.29;100.00
49945;BME280;35838;49.134;9.212;2023-11-19T03:22:59;99723.31;;;8.31;100.00
49945;BME280;35838;49.134;9.212;2023-11-19T03:24:33;99728.50;;;8.31;100.00
49945;BME280;35838;49.134;9.212;2023-11-19T03:26:04;99737.94;;;8.26;100.00
49945;BME280;35838;49.134;9.212;2023-11-19T03:27:38;99733.63;;;8.19;100.00
49945;BME280;35838;49.134;9.212;2023-11-19T03:29:10;99730.19;;;8.24;100.00
49945;BME280;35838;49.134;9.212;2023-11-19T03:30:43;99722.44;;;8.26;100.00
49945;BME280;35838;49.134;9.212;2023-11-19T03:32:15;99717.31;;;8.32;100.00
49945;BME280;35838;49.134;9.212;2023-11-19T03:33:48;99713.84;;;8.31;100.00
49945;BME280;35838;49.134;9.212;2023-11-19T03:35:22;99705.25;;;8.40;100.00
49945;BME280;35838;49.134;9.212;2023-11-19T03:36:55;99709.56;;;8.46;100.00
49945;BME280;35838;49.134;9.212;2023-11-19T03:38:27;99704.41;;;8.51;100.00
49945;BME280;35838;49.134;9.212;2023-11-19T03:40:01;99701.81;;;8.60;100.00
49945;BME280;35838;49.134;9.212;2023-11-19T03:41:32;99700.97;;;8.64;100.00
49945;BME280;35838;49.134;9.212;2023-11-19T03:43:06;99704.44;;;8.66;100.00
49945;BME280;35838;49.134;9.212;2023-11-19T03:44:37;99704.44;;;8.72;100.00
49945;BME280;35838;49.134;9.212;2023-11-19T03:46:17;99696.69;;;8.75;100.00
49945;BME280;35838;49.134;9.212;2023-11-19T03:47:51;99701.84;;;8.75;100.00
49945;BME280;35838;49.134;9.212;2023-11-19T03:49:22;99697.53;;;8.77;100.00
49945;BME280;35838;49.134;9.212;2023-11-19T03:50:59;99689.78;;;8.76;100.00
49945;BME280;35838;49.134;9.212;2023-11-19T03:52:33;99689.75;;;8.87;100.00
49945;BME280;35838;49.134;9.212;2023-11-19T03:54:04;99679.41;;;8.90;100.00
49945;BME280;35838;49.134;9.212;2023-11-19T03:55:39;99685.47;;;8.92;100.00
49945;BME280;35838;49.134;9.212;2023-11-19T03:57:13;99705.31;;;8.88;100.00
49945;BME280;35838;49.134;9.212;2023-11-19T03:58:44;99698.41;;;8.86;100.00
49945;BME280;35838;49.134;9.212;2023-11-19T04:00:18;99694.94;;;8.91;100.00
49945;BME280;35838;49.134;9.212;2023-11-19T04:01:51;99694.09;;;8.94;100.00
49945;BME280;35838;49.134;9.212;2023-11-19T04:03:27;99694.94;;;9.01;100.00
49945;BME280;35838;49.134;9.212;2023-11-19T04:04:58;99690.63;;;9.03;100.00
49945;BME280;35838;49.134;9.212;2023-11-19T04:06:34;99690.59;;;9.04;100.00
49945;BME280;35838;49.134;9.212;2023-11-19T04:08:05;99684.59;;;9.07;100.00
49945;BME280;35838;49.134;9.212;2023-11-19T04:09:39;99689.75;;;9.10;100.00
49945;BME280;35838;49.134;9.212;2023-11-19T04:11:10;99688.88;;;8.97;100.00
49945;BME280;35838;49.134;9.212;2023-11-19T04:12:44;99689.75;;;8.87;100.00
49945;BME280;35838;49.134;9.212;2023-11-19T04:14:15;99687.19;;;8.84;100.00
49945;BME280;35838;49.134;9.212;2023-11-19T04:15:49;99696.66;;;8.83;100.00
49945;BME280;35838;49.134;9.212;2023-11-19T04:17:20;99688.03;;;8.56;100.00
49945;BME280;35838;49.134;9.212;2023-11-19T04:18:54;99681.16;;;8.66;100.00
49945;BME280;35838;49.134;9.212;2023-11-19T04:20:25;99685.47;;;8.73;100.00
49945;BME280;35838;49.134;9.212;2023-11-19T04:22:01;99689.78;;;8.65;100.00
49945;BME280;35838;49.134;9.212;2023-11-19T04:23:32;99687.16;;;8.53;100.00
49945;BME280;35838;49.134;9.212;2023-11-19T04:25:06;99694.00;;;8.35;100.00
49945;BME280;35838;49.134;9.212;2023-11-19T04:26:39;99696.66;;;8.51;100.00
49945;BME280;35838;49.134;9.212;2023-11-19T04:28:13;99688.84;;;8.38;100.00
49945;BME280;35838;49.134;9.212;2023-11-19T04:29:44;99686.31;;;8.49;100.00
49945;BME280;35838;49.134;9.212;2023-11-19T04:31:18;99685.44;;;8.56;100.00
49945;BME280;35838;49.134;9.212;2023-11-19T04:32:49;99680.28;;;8.58;100.00
49945;BME280;35838;49.134;9.212;2023-11-19T04:34:23;99676.84;;;8.64;100.00
49945;BME280;35838;49.134;9.212;2023-11-19T04:35:56;99677.69;;;8.69;100.00
49945;BME280;35838;49.134;9.212;2023-11-19T04:37:30;99668.22;;;8.72;100.00
49945;BME280;35838;49.134;9.212;2023-11-19T04:39:04;99669.94;;;8.81;100.00
49945;BME280;35838;49.134;9.212;2023-11-19T04:40:39;99676.81;;;8.87;100.00
49945;BME280;35838;49.134;9.212;2023-11-19T04:42:13;99674.22;;;8.91;100.00
49945;BME280;35838;49.134;9.212;2023-11-19T04:43:47;99668.19;;;8.96;100.00
49945;BME280;35838;49.134;9.212;2023-11-19T04:45:21;99680.28;;;9.01;100.00
49945;BME280;35838;49.134;9.212;2023-11-19T04:46:52;99678.53;;;9.09;100.00
49945;BME280;35838;49.134;9.212;2023-11-19T04:48:25;99684.56;;;9.12;100.00
49945;BME280;35838;49.134;9.212;2023-11-19T04:49:56;99687.16;;;9.16;100.00
49945;BME280;35838;49.134;9.212;2023-11-19T04:51:30;99679.34;;;9.29;100.00
49945;BME280;35838;49.134;9.212;2023-11-19T04:53:04;99680.22;;;9.29;100.00
49945;BME280;35838;49.134;9.212;2023-11-19T04:54:40;99681.91;;;9.35;100.00
49945;BME280;35838;49.134;9.212;2023-11-19T04:56:11;99682.78;;;9.43;100.00
49945;BME280;35838;49.134;9.212;2023-11-19T04:57:47;99684.50;;;9.43;100.00
49945;BME280;35838;49.134;9.212;2023-11-19T04:59:18;99683.63;;;9.44;100.00
49945;BME280;35838;49.134;9.212;2023-11-19T05:00:52;99684.50;;;9.46;100.00
49945;BME280;35838;49.134;9.212;2023-11-19T05:02:24;99685.34;;;9.51;100.00
49945;BME280;35838;49.134;9.212;2023-11-19T05:03:57;99677.56;;;9.51;100.00
49945;BME280;35838;49.134;9.212;2023-11-19T05:05:32;99672.34;;;9.60;100.00
49945;BME280;35838;49.134;9.212;2023-11-19T05:07:03;99673.16;;;9.70;100.00
49945;BME280;35838;49.134;9.212;2023-11-19T05:08:40;99683.50;;;9.81;100.00
49945;BME280;35838;49.134;9.212;2023-11-19T05:10:11;99678.28;;;9.84;100.00
49945;BME280;35838;49.134;9.212;2023-11-19T05:11:45;99688.66;;;9.84;100.00
49945;BME280;35838;49.134;9.212;2023-11-19T05:13:16;99686.88;;;9.95;100.00
49945;BME280;35838;49.134;9.212;2023-11-19T05:14:49;99679.94;;;9.99;100.00
49945;BME280;35838;49.134;9.212;2023-11-19T05:16:23;99685.16;;;9.96;100.00
49945;BME280;35838;49.134;9.212;2023-11-19T05:17:54;99681.69;;;9.98;100.00
49945;BME280;35838;49.134;9.212;2023-11-19T05:19:27;99691.19;;;9.96;100.00
49945;BME280;35838;49.134;9.212;2023-11-19T05:20:59;99685.09;;;10.05;100.00
49945;BME280;35838;49.134;9.212;2023-11-19T05:22:32;99686.81;;;10.06;100.00
49945;BME280;35838;49.134;9.212;2023-11-19T05:24:06;99685.97;;;10.06;100.00
49945;BME280;35838;49.134;9.212;2023-11-19T05:25:40;99684.22;;;10.06;100.00
49945;BME280;35838;49.134;9.212;2023-11-19T05:27:11;99683.34;;;10.07;100.00
49945;BME280;35838;49.134;9.212;2023-11-19T05:28:45;99682.47;;;10.16;100.00
49945;BME280;35838;49.134;9.212;2023-11-19T05:30:16;99683.28;;;10.24;100.00
49945;BME280;35838;49.134;9.212;2023-11-19T05:31:49;99677.22;;;10.25;100.00
49945;BME280;35838;49.134;9.212;2023-11-19T05:33:20;99674.59;;;10.30;100.00
49945;BME280;35838;49.134;9.212;2023-11-19T05:34:54;99676.28;;;10.34;100.00
49945;BME280;35838;49.134;9.212;2023-11-19T05:36:25;99667.66;;;10.30;100.00
49945;BME280;35838;49.134;9.212;2023-11-19T05:37:59;99674.59;;;10.28;100.00
49945;BME280;35838;49.134;9.212;2023-11-19T05:39:33;99687.53;;;10.34;100.00
49945;BME280;35838;49.134;9.212;2023-11-19T05:41:07;99683.19;;;10.35;100.00
49945;BME280;35838;49.134;9.212;2023-11-19T05:42:40;99678.91;;;10.37;100.00
49945;BME280;35838;49.134;9.212;2023-11-19T05:44:12;99669.34;;;10.41;100.00
49945;BME280;35838;49.134;9.212;2023-11-19T05:45:46;99675.41;;;10.43;100.00
49945;BME280;35838;49.134;9.212;2023-11-19T05:47:17;99677.09;;;10.48;100.00
49945;BME280;35838;49.134;9.212;2023-11-19T05:48:51;99677.09;;;10.48;100.00
49945;BME280;35838;49.134;9.212;2023-11-19T05:50:22;99671.91;;;10.48;100.00
49945;BME280;35838;49.134;9.212;2023-11-19T05:51:56;99676.16;;;10.54;100.00
49945;BME280;35838;49.134;9.212;2023-11-19T05:53:28;99678.72;;;10.62;100.00
49945;BME280;35838;49.134;9.212;2023-11-19T05:55:04;99678.69;;;10.63;100.00
49945;BME280;35838;49.134;9.212;2023-11-19T05:56:36;99681.22;;;10.71;100.00
49945;BME280;35838;49.134;9.212;2023-11-19T05:58:10;99688.13;;;10.74;100.00
49945;BME280;35838;49.134;9.212;2023-11-19T05:59:42;99693.31;;;10.75;100.00
49945;BME280;35838;49.134;9.212;2023-11-19T06:01:16;99686.38;;;10.76;100.00
49945;BME280;35838;49.134;9.212;2023-11-19T06:02:47;99694.13;;;10.80;100.00
49945;BME280;35838;49.134;9.212;2023-11-19T06:04:21;99687.16;;;10.86;100.00
49945;BME280;35838;49.134;9.212;2023-11-19T06:05:52;99688.88;;;10.87;100.00
49945;BME280;35838;49.134;9.212;2023-11-19T06:07:26;99685.41;;;10.89;100.00
49945;BME280;35838;49.134;9.212;2023-11-19T06:08:57;99689.69;;;10.93;100.00
49945;BME280;35838;49.134;9.212;2023-11-19T06:10:33;99681.00;;;10.97;100.00
49945;BME280;35838;49.134;9.212;2023-11-19T06:12:07;99681.00;;;10.97;100.00
49945;BME280;35838;49.134;9.212;2023-11-19T06:13:38;99676.72;;;10.93;100.00
49945;BME280;35838;49.134;9.212;2023-11-19T06:15:13;99678.44;;;10.94;100.00
49945;BME280;35838;49.134;9.212;2023-11-19T06:16:44;99682.75;;;10.95;100.00
49945;BME280;35838;49.134;9.212;2023-11-19T06:18:18;99677.56;;;10.95;100.00
49945;BME280;35838;49.134;9.212;2023-11-19T06:19:50;99674.97;;;10.94;100.00
49945;BME280;35838;49.134;9.212;2023-11-19T06:21:24;99668.84;;;11.03;100.00
49945;BME280;35838;49.134;9.212;2023-11-19T06:22:55;99674.94;;;11.00;100.00
49945;BME280;35838;49.134;9.212;2023-11-19T06:24:29;99670.59;;;11.01;100.00
49945;BME280;35838;49.134;9.212;2023-11-19T06:26:03;99667.94;;;11.05;100.00
49945;BME280;35838;49.134;9.212;2023-11-19T06:27:37;99674.94;;;11.00;100.00
49945;BME280;35838;49.134;9.212;2023-11-19T06:29:08;99674.06;;;11.00;100.00
49945;BME280;35838;49.134;9.212;2023-11-19T06:30:41;99680.13;;;11.00;100.00
49945;BME280;35838;49.134;9.212;2023-11-19T06:32:15;99687.91;;;11.00;100.00
49945;BME280;35838;49.134;9.212;2023-11-19T06:33:46;99682.66;;;11.03;100.00
49945;BME280;35838;49.134;9.212;2023-11-19T06:35:20;99686.16;;;11.04;100.00
49945;BME280;35838;49.134;9.212;2023-11-19T06:36:51;99684.41;;;11.03;100.00
49945;BME280;35838;49.134;9.212;2023-11-19T06:38:24;99677.53;;;10.98;100.00
49945;BME280;35838;49.134;9.212;2023-11-19T06:39:55;99672.28;;;11.03;100.00
49945;BME280;35838;49.134;9.212;2023-11-19T06:41:32;99671.38;;;11.09;100.00
49945;BME280;35838;49.134;9.212;2023-11-19T06:43:03;99679.22;;;11.06;100.00
49945;BME280;35838;49.134;9.212;2023-11-19T06:44:39;99674.81;;;11.11;100.00
49945;BME280;35838;49.134;9.212;2023-11-19T06:46:19;99684.34;;;11.10;100.00
49945;BME280;35838;49.134;9.212;2023-11-19T06:47:52;99666.06;;;11.20;100.00
49945;BME280;35838;49.134;9.212;2023-11-19T06:49:23;99666.91;;;11.23;100.00
49945;BME280;35838;49.134;9.212;2023-11-19T06:50:57;99666.00;;;11.24;100.00
49945;BME280;35838;49.134;9.212;2023-11-19T06:52:28;99676.41;;;11.24;100.00
49945;BME280;35838;49.134;9.212;2023-11-19T06:54:02;99677.25;;;11.26;100.00
49945;BME280;35838;49.134;9.212;2023-11-19T06:55:33;99677.22;;;11.29;100.00
49945;BME280;35838;49.134;9.212;2023-11-19T06:57:09;99678.13;;;11.25;100.00
49945;BME280;35838;49.134;9.212;2023-11-19T06:58:40;99684.25;;;11.21;100.00
49945;BME280;35838;49.134;9.212;2023-11-19T07:00:14;99684.16;;;11.27;100.00
49945;BME280;35838;49.134;9.212;2023-11-19T07:01:45;99696.31;;;11.25;100.00
49945;BME280;35838;49.134;9.212;2023-11-19T07:03:19;99701.50;;;11.28;100.00
49945;BME280;35838;49.134;9.212;2023-11-19T07:04:51;99698.91;;;11.25;100.00
49945;BME280;35838;49.134;9.212;2023-11-19T07:06:25;99700.59;;;11.31;100.00
49945;BME280;35838;49.134;9.212;2023-11-19T07:07:57;99699.69;;;11.35;100.00
49945;BME280;35838;49.134;9.212;2023-11-19T07:09:31;99706.59;;;11.38;100.00
49945;BME280;35838;49.134;9.212;2023-11-19T07:11:05;99710.13;;;11.31;100.00
49945;BME280;35838;49.134;9.212;2023-11-19T07:12:39;99711.78;;;11.38;100.00
49945;BME280;35838;49.134;9.212;2023-11-19T07:14:13;99712.69;;;11.34;100.00
49945;BME280;35838;49.134;9.212;2023-11-19T07:15:44;99709.16;;;11.41;100.00
49945;BME280;35838;49.134;9.212;2023-11-19T07:17:18;99706.56;;;11.41;100.00
49945;BME280;35838;49.134;9.212;2023-11-19T07:18:49;99703.97;;;11.39;100.00
49945;BME280;35838;49.134;9.212;2023-11-19T07:20:23;99691.88;;;11.37;100.00
49945;BME280;35838;49.134;9.212;2023-11-19T07:21:57;99695.31;;;11.39;100.00
49945;BME280;35838;49.134;9.212;2023-11-19T07:23:28;99685.81;;;11.38;100.00
49945;BME280;35838;49.134;9.212;2023-11-19T07:25:03;99681.44;;;11.38;100.00
49945;BME280;35838;49.134;9.212;2023-11-19T07:26:34;99686.63;;;11.41;100.00
49945;BME280;35838;49.134;9.212;2023-11-19T07:28:10;99679.69;;;11.43;100.00
49945;BME280;35838;49.134;9.212;2023-11-19T07:29:43;99692.72;;;11.37;100.00
49945;BME280;35838;49.134;9.212;2023-11-19T07:31:16;99695.25;;;11.42;100.00
49945;BME280;35838;49.134;9.212;2023-11-19T07:32:49;99698.66;;;11.52;100.00
49945;BME280;35838;49.134;9.212;2023-11-19T07:34:23;99708.25;;;11.43;100.00
49945;BME280;35838;49.134;9.212;2023-11-19T07:35:55;99715.94;;;11.54;100.00
49945;BME280;35838;49.134;9.212;2023-11-19T07:37:29;99715.16;;;11.46;100.00
49945;BME280;35838;49.134;9.212;2023-11-19T07:39:03;99716.91;;;11.44;100.00
49945;BME280;35838;49.134;9.212;2023-11-19T07:40:35;99707.38;;;11.43;100.00
49945;BME280;35838;49.134;9.212;2023-11-19T07:42:09;99709.91;;;11.51;100.00
49945;BME280;35838;49.134;9.212;2023-11-19T07:43:43;99715.16;;;11.46;100.00
49945;BME280;35838;49.134;9.212;2023-11-19T07:45:17;99703.91;;;11.46;100.00
49945;BME280;35838;49.134;9.212;2023-11-19T07:46:48;99717.69;;;11.54;100.00
49945;BME280;35838;49.134;9.212;2023-11-19T07:48:21;99727.19;;;11.56;100.00
49945;BME280;35838;49.134;9.212;2023-11-19T07:49:54;99718.53;;;11.54;100.00
49945;BME280;35838;49.134;9.212;2023-11-19T07:51:27;99709.88;;;11.52;100.00
49945;BME280;35838;49.134;9.212;2023-11-19T07:52:58;99722.88;;;11.52;100.00
49945;BME280;35838;49.134;9.212;2023-11-19T07:54:32;99723.75;;;11.51;100.00
49945;BME280;35838;49.134;9.212;2023-11-19T07:56:04;99724.63;;;11.52;100.00
49945;BME280;35838;49.134;9.212;2023-11-19T07:57:38;99733.28;;;11.52;100.00
49945;BME280;35838;49.134;9.212;2023-11-19T07:59:12;99725.50;;;11.54;100.00
49945;BME280;35838;49.134;9.212;2023-11-19T08:00:46;99729.81;;;11.53;100.00
49945;BME280;35838;49.134;9.212;2023-11-19T08:02:17;99734.06;;;11.60;100.00
49945;BME280;35838;49.134;9.212;2023-11-19T08:03:50;99723.75;;;11.53;100.00
49945;BME280;35838;49.134;9.212;2023-11-19T08:05:21;99725.53;;;11.49;100.00
49945;BME280;35838;49.134;9.212;2023-11-19T08:06:56;99711.63;;;11.53;100.00
49945;BME280;35838;49.134;9.212;2023-11-19T08:08:27;99715.09;;;11.52;100.00
49945;BME280;35838;49.134;9.212;2023-11-19T08:10:04;99707.28;;;11.54;100.00
49945;BME280;35838;49.134;9.212;2023-11-19T08:11:35;99719.41;;;11.53;100.00
49945;BME280;35838;49.134;9.212;2023-11-19T08:13:10;99714.13;;;11.59;100.00
49945;BME280;35838;49.134;9.212;2023-11-19T08:14:43;99720.25;;;11.58;100.00
49945;BME280;35838;49.134;9.212;2023-11-19T08:16:17;99715.84;;;11.64;100.00
49945;BME280;35838;49.134;9.212;2023-11-19T08:17:48;99714.97;;;11.65;100.00
49945;BME280;35838;49.134;9.212;2023-11-19T08:19:22;99725.31;;;11.66;100.00
49945;BME280;35838;49.134;9.212;2023-11-19T08:20:53;99714.84;;;11.72;100.00
49945;BME280;35838;49.134;9.212;2023-11-19T08:22:28;99723.63;;;11.67;100.00
49945;BME280;35838;49.134;9.212;2023-11-19T08:24:02;99723.72;;;11.57;100.00
49945;BME280;35838;49.134;9.212;2023-11-19T08:25:34;99715.78;;;11.68;100.00
49945;BME280;35838;49.134;9.212;2023-11-19T08:27:07;99719.22;;;11.72;100.00
49945;BME280;35838;49.134;9.212;2023-11-19T08:28:38;99723.56;;;11.70;100.00
49945;BME280;35838;49.134;9.212;2023-11-19T08:30:15;99729.59;;;11.72;100.00
49945;BME280;35838;49.134;9.212;2023-11-19T08:31:46;99726.16;;;11.71;100.00
49945;BME280;35838;49.134;9.212;2023-11-19T08:33:20;99731.41;;;11.65;100.00
49945;BME280;35838;49.134;9.212;2023-11-19T08:34:53;99732.19;;;11.73;100.00
49945;BME280;35838;49.134;9.212;2023-11-19T08:36:27;99731.34;;;11.71;100.00